createdAt,value
2023-05-19T00:07:32.711Z,78.7734
2023-05-19T00:09:33.672Z,79.5047
2023-05-19T00:10:34.787Z,79.8047
2023-05-19T00:13:37.322Z,79.4014
2023-05-19T00:20:40.060Z,79.7059
2023-05-19T00:21:41.099Z,79.7952
2023-05-19T00:23:42.369Z,78.5832
2023-05-19T00:24:42.912Z,79.1697
2023-05-19T00:25:43.599Z,79.2207
2023-05-19T00:26:44.749Z,78.6948
2023-05-19T00:28:45.662Z,81.1826
2023-05-19T00:29:46.719Z,81.0827
2023-05-19T00:34:49.368Z,79.9428
2023-05-19T00:36:50.043Z,80.0328
2023-05-19T00:37:50.088Z,80.8224
2023-05-19T00:38:50.956Z,80.1491
2023-05-19T00:39:51.941Z,82.3486
2023-05-19T00:40:52.523Z,82.2933
2023-05-19T00:41:52.840Z,81.3933
2023-05-19T00:42:53.300Z,81.1495
2023-05-19T00:43:54.149Z,81.2280
2023-05-19T00:45:54.522Z,81.3322
2023-05-19T00:46:54.772Z,82.0318
2023-05-19T00:48:53.054Z,80.9330
2023-05-19T00:49:53.390Z,81.6418
2023-05-19T00:50:54.376Z,82.4228
2023-05-19T00:51:55.089Z,82.3027
2023-05-19T00:52:57.026Z,83.1310
2023-05-19T01:00:00.524Z,79.9073
2023-05-19T01:05:04.142Z,80.6095
2023-05-19T01:06:04.704Z,81.1216
2023-05-19T01:08:04.549Z,82.2261
2023-05-19T01:10:05.566Z,81.5695
2023-05-19T01:11:06.125Z,81.0119
2023-05-19T01:18:09.122Z,83.8511
2023-05-19T01:25:14.664Z,84.3949
2023-05-19T01:27:15.383Z,85.0155
2023-05-19T01:29:16.427Z,85.9850
2023-05-19T01:37:21.055Z,84.6646
2023-05-19T01:40:21.560Z,83.9564
2023-05-19T01:41:22.479Z,84.4417
2023-05-19T01:42:23.270Z,83.7142
2023-05-19T01:43:23.661Z,83.7227
2023-05-19T01:45:26.309Z,83.4992
2023-05-19T01:47:27.944Z,84.0508
2023-05-19T01:58:35.410Z,83.2826
2023-05-19T01:59:36.504Z,83.1233
2023-05-19T02:00:37.569Z,84.5356
2023-05-19T02:01:38.409Z,84.1304
2023-05-19T02:08:42.002Z,83.4953
2023-05-19T02:10:43.378Z,82.9315
2023-05-19T02:11:44.520Z,83.9305
2023-05-19T02:12:44.664Z,84.4572
2023-05-19T02:13:45.684Z,84.1471
2023-05-19T02:14:46.036Z,85.4915
2023-05-19T02:15:49.077Z,84.9876
2023-05-19T02:16:50.410Z,84.6981
2023-05-19T02:17:51.115Z,84.0282
2023-05-19T02:18:51.537Z,84.5135
2023-05-19T02:19:51.531Z,85.5013
2023-05-19T02:20:52.442Z,84.3155
2023-05-19T02:21:52.988Z,83.6190
2023-05-19T02:22:53.936Z,83.2955
2023-05-19T02:23:54.592Z,83.8920
2023-05-19T02:24:54.639Z,84.9009
2023-05-19T02:25:55.484Z,84.1515
2023-05-19T02:26:55.978Z,84.4316
2023-05-19T02:27:57.350Z,83.6329
2023-05-19T02:28:58.107Z,84.5482
2023-05-19T02:29:58.102Z,85.6886
2023-05-19T02:31:00.069Z,84.9147
2023-05-19T02:32:00.906Z,83.7300
2023-05-19T02:39:03.809Z,83.3472
2023-05-19T02:42:06.234Z,83.0329
2023-05-19T02:44:07.122Z,83.1368
2023-05-19T02:53:19.514Z,83.9284
2023-05-19T02:54:19.723Z,84.0680
2023-05-19T02:55:21.066Z,83.5932
2023-05-19T02:56:22.181Z,82.8934
2023-05-19T02:57:24.166Z,83.8808
2023-05-19T02:58:24.300Z,83.8850
2023-05-19T02:59:25.708Z,83.8167
2023-05-19T03:00:24.937Z,84.2336
2023-05-19T03:01:25.667Z,84.3854
2023-05-19T03:02:26.006Z,83.9692
2023-05-19T03:03:26.651Z,84.6928
2023-05-19T03:04:26.682Z,83.8791
2023-05-19T03:05:28.070Z,83.7390
2023-05-19T03:06:29.066Z,83.5257
2023-05-19T03:11:32.120Z,84.8374
2023-05-19T03:12:32.565Z,84.6778
2023-05-19T03:13:33.489Z,84.0590
2023-05-19T03:15:34.080Z,84.1918
2023-05-19T03:16:35.248Z,83.6655
2023-05-19T03:17:35.593Z,84.6653
2023-05-19T03:18:35.699Z,85.2192
2023-05-19T03:19:37.109Z,84.4366
2023-05-19T03:20:40.922Z,84.7458
2023-05-19T03:21:39.976Z,85.0624
2023-05-19T03:25:42.301Z,84.1482
2023-05-19T03:27:43.017Z,84.5387
2023-05-19T03:28:43.569Z,84.8979
2023-05-19T03:30:43.371Z,84.4958
2023-05-19T03:31:43.492Z,84.3260
2023-05-19T03:32:43.768Z,84.6278
2023-05-19T03:33:44.557Z,84.8491
2023-05-19T03:35:45.741Z,85.5294
2023-05-19T03:36:46.068Z,85.4249
2023-05-19T03:37:46.692Z,84.7031
2023-05-19T03:38:47.801Z,85.3503
2023-05-19T03:44:50.264Z,84.1246
2023-05-19T03:45:50.926Z,84.0170
2023-05-19T03:46:52.717Z,84.5379
2023-05-19T03:47:53.412Z,84.1880
2023-05-19T03:48:54.979Z,84.3722
2023-05-19T03:53:55.600Z,86.5806
2023-05-19T03:54:57.020Z,87.0690
2023-05-19T04:04:01.936Z,85.6579
2023-05-19T04:09:04.212Z,85.9054
2023-05-19T04:10:04.570Z,85.7283
2023-05-19T04:12:07.721Z,85.9310
2023-05-19T04:14:09.666Z,87.0935
2023-05-19T04:15:09.802Z,87.8939
2023-05-19T04:16:11.425Z,88.0167
2023-05-19T04:18:11.872Z,87.8105
2023-05-19T04:20:13.182Z,87.2165
2023-05-19T04:21:13.864Z,86.3709
2023-05-19T04:22:15.057Z,86.3165
2023-05-19T04:23:15.814Z,86.7797
2023-05-19T04:24:17.327Z,86.7523
2023-05-19T04:25:17.490Z,86.9358
2023-05-19T04:26:17.964Z,86.9943
2023-05-19T04:27:19.163Z,86.3811
2023-05-19T04:30:21.929Z,87.2855
2023-05-19T04:31:22.051Z,86.7354
2023-05-19T04:32:22.851Z,86.8450
2023-05-19T04:33:24.270Z,87.0329
2023-05-19T04:34:25.318Z,86.6183
2023-05-19T04:38:26.847Z,86.0241
2023-05-19T04:39:27.489Z,85.3320
2023-05-19T04:40:27.806Z,85.6515
2023-05-19T04:41:28.759Z,85.2505
2023-05-19T04:42:29.883Z,85.0930
2023-05-19T04:43:30.160Z,84.8800
2023-05-19T04:44:31.559Z,84.6568
2023-05-19T04:45:31.738Z,85.1007
2023-05-19T04:47:34.627Z,84.6289
2023-05-19T04:53:39.282Z,84.1904
2023-05-19T04:54:39.511Z,84.5566
2023-05-19T04:55:39.873Z,84.7531
2023-05-19T04:56:40.443Z,83.2419
2023-05-19T05:04:43.595Z,83.1908
2023-05-19T05:05:45.365Z,82.7777
2023-05-19T05:07:45.593Z,82.7096
2023-05-19T05:08:46.688Z,81.9061
2023-05-19T05:09:47.093Z,82.0297
2023-05-19T05:10:47.706Z,82.2845
2023-05-19T05:22:54.908Z,80.1830
2023-05-19T05:23:56.150Z,80.4670
2023-05-19T05:24:56.251Z,80.2178
2023-05-19T05:25:56.650Z,80.6801
2023-05-19T05:28:59.807Z,80.7362
2023-05-19T05:30:00.298Z,81.0438
2023-05-19T05:31:00.518Z,81.0664
2023-05-19T05:32:00.927Z,81.0820
2023-05-19T05:33:01.270Z,81.6047
2023-05-19T05:34:02.333Z,82.1436
2023-05-19T05:35:03.404Z,82.2410
2023-05-19T05:36:04.882Z,81.5239
2023-05-19T05:37:06.278Z,82.1467
2023-05-19T05:38:07.047Z,82.0948
2023-05-19T05:39:08.397Z,82.7343
2023-05-19T05:40:08.807Z,82.3157
2023-05-19T05:41:09.856Z,82.3156
2023-05-19T05:42:11.063Z,82.5939
2023-05-19T05:43:12.534Z,82.5078
2023-05-19T05:44:12.767Z,82.8302
2023-05-19T05:45:13.212Z,83.0941
2023-05-19T05:56:20.348Z,82.3177
2023-05-19T05:57:20.813Z,82.7743
2023-05-19T05:58:21.726Z,82.5825
2023-05-19T05:59:22.713Z,82.6304
2023-05-19T06:01:22.168Z,82.7807
2023-05-19T06:02:23.786Z,82.5125
2023-05-19T06:03:24.719Z,82.7598
2023-05-19T06:04:26.005Z,83.2015
2023-05-19T06:05:26.446Z,82.5670
2023-05-19T06:06:27.486Z,83.0883
2023-05-19T06:07:28.007Z,82.5100
2023-05-19T06:11:07.230Z,81.8967
2023-05-19T06:12:08.276Z,82.5151
2023-05-19T06:13:08.890Z,82.5733
2023-05-19T06:14:09.516Z,82.5632
2023-05-19T06:15:09.782Z,82.7781
2023-05-19T06:17:12.830Z,82.6812
2023-05-19T06:18:13.850Z,82.8047
2023-05-19T06:23:18.183Z,82.7321
2023-05-19T06:24:18.853Z,82.6369
2023-05-19T06:25:18.878Z,82.5622
2023-05-19T06:29:21.377Z,82.8207
2023-05-19T06:30:21.836Z,83.5169
2023-05-19T06:31:22.930Z,83.0546
2023-05-19T06:32:22.919Z,83.3545
2023-05-19T06:33:25.556Z,82.5548
2023-05-19T06:34:25.681Z,83.1944
2023-05-19T06:39:30.351Z,82.6466
2023-05-19T06:40:31.498Z,83.0486
2023-05-19T06:42:32.022Z,82.7799
2023-05-19T06:43:32.396Z,83.1433
2023-05-19T06:44:33.477Z,83.2520
2023-05-19T06:45:34.216Z,83.2975
2023-05-19T06:46:34.346Z,82.8838
2023-05-19T06:47:35.498Z,83.1525
2023-05-19T06:48:35.784Z,82.7329
2023-05-19T06:49:37.761Z,82.8539
2023-05-19T06:54:39.136Z,83.2267
2023-05-19T06:55:54.356Z,83.2787
2023-05-19T06:56:40.725Z,83.7027
2023-05-19T06:58:43.640Z,82.7314
2023-05-19T06:59:43.934Z,82.8341
2023-05-19T07:00:44.883Z,82.9795
2023-05-19T07:09:47.200Z,82.0984
2023-05-19T07:12:48.598Z,81.1816
2023-05-19T07:15:49.701Z,81.8791
2023-05-19T07:16:50.253Z,80.8940
2023-05-19T07:17:52.120Z,80.8531
2023-05-19T07:18:52.507Z,80.5250
2023-05-19T07:19:53.810Z,80.9341
2023-05-19T07:20:54.102Z,80.9282
2023-05-19T07:21:55.620Z,81.0348
2023-05-19T07:22:55.903Z,81.0461
2023-05-19T07:23:57.113Z,80.3928
2023-05-19T07:26:58.849Z,81.0856
2023-05-19T07:27:59.266Z,80.2191
2023-05-19T07:29:12.203Z,80.2821
2023-05-19T07:30:02.156Z,79.5304
2023-05-19T07:31:03.278Z,79.3878
2023-05-19T07:32:04.074Z,80.2470
2023-05-19T07:33:05.340Z,79.4021
2023-05-19T07:34:06.244Z,79.4269
2023-05-19T07:35:06.575Z,79.6475
2023-05-19T07:36:07.984Z,79.8113
2023-05-19T07:39:11.295Z,80.5016
2023-05-19T07:40:12.006Z,80.3976
2023-05-19T07:41:13.022Z,80.1174
2023-05-19T07:42:13.514Z,79.2775
2023-05-19T07:43:14.702Z,78.8471
2023-05-19T07:44:15.581Z,79.1240
2023-05-19T07:45:16.710Z,79.1564
2023-05-19T07:49:18.357Z,77.5880
2023-05-19T07:50:19.310Z,77.4994
2023-05-19T07:51:19.558Z,76.2788
2023-05-19T07:54:21.657Z,77.0250
2023-05-19T07:55:22.106Z,76.6805
2023-05-19T07:56:22.823Z,76.5966
2023-05-19T07:57:23.207Z,77.0684
2023-05-19T07:58:24.073Z,76.5477
2023-05-19T07:59:25.427Z,76.8371
2023-05-19T08:00:26.070Z,76.4592
2023-05-19T08:01:27.134Z,76.9427
2023-05-19T08:02:27.670Z,76.9109
2023-05-19T08:04:29.651Z,76.2744
2023-05-19T08:05:30.303Z,76.4737
2023-05-19T08:06:30.867Z,77.3383
2023-05-19T08:07:31.354Z,77.5274
2023-05-19T08:12:33.891Z,78.8548
2023-05-19T08:13:34.669Z,79.0137
2023-05-19T08:14:34.962Z,78.6825
2023-05-19T08:15:35.478Z,79.7122
2023-05-19T08:16:36.021Z,78.4575
2023-05-19T08:17:36.928Z,77.6822
2023-05-19T08:18:37.766Z,78.3855
2023-05-19T08:21:38.737Z,77.3642
2023-05-19T08:22:38.971Z,77.3056
2023-05-19T08:23:39.902Z,77.7263
2023-05-19T08:24:40.705Z,77.6773
2023-05-19T08:25:42.358Z,77.2177
2023-05-19T08:26:43.232Z,78.5609
2023-05-19T08:27:44.022Z,77.7745
2023-05-19T08:28:44.969Z,78.2625
2023-05-19T08:29:45.977Z,78.4424
2023-05-19T08:33:47.502Z,78.3658
2023-05-19T08:34:47.883Z,77.7696
2023-05-19T08:35:47.922Z,77.8441
2023-05-19T08:36:49.060Z,77.6470
2023-05-19T08:37:49.155Z,78.1426
2023-05-19T08:38:50.117Z,78.2398
2023-05-19T08:39:51.327Z,78.7355
2023-05-19T08:40:51.735Z,78.2831
2023-05-19T08:52:19.439Z,75.4894
2023-05-19T08:54:19.789Z,75.7485
2023-05-19T08:55:20.777Z,75.6626
2023-05-19T08:56:21.872Z,75.0914
2023-05-19T08:57:22.927Z,73.6424
2023-05-19T08:58:23.765Z,74.2918
2023-05-19T08:59:24.600Z,73.8626
2023-05-19T09:00:25.689Z,74.0113
2023-05-19T09:01:25.938Z,73.1607
2023-05-19T09:02:27.057Z,74.7080
2023-05-19T09:03:28.691Z,72.3708
2023-05-19T09:04:29.994Z,73.2207
2023-05-19T09:05:29.465Z,74.4588
2023-05-19T09:06:30.187Z,75.3485
2023-05-19T09:07:31.459Z,74.5202
2023-05-19T09:08:32.582Z,75.1496
2023-05-19T09:09:32.753Z,77.0788
2023-05-19T09:10:33.476Z,75.7091
2023-05-19T09:11:33.616Z,73.9733
2023-05-19T09:12:34.824Z,75.2490
2023-05-19T09:13:36.007Z,75.0473
2023-05-19T09:14:37.208Z,75.8161
2023-05-19T09:32:51.180Z,77.2797
2023-05-19T09:33:51.426Z,77.3597
2023-05-19T09:34:52.551Z,76.9449
2023-05-19T09:35:52.684Z,77.2319
2023-05-19T09:36:53.861Z,77.8756
2023-05-19T09:37:54.132Z,77.2907
2023-05-19T09:38:55.160Z,76.4053
2023-05-19T09:39:56.112Z,75.6505
2023-05-19T09:40:57.048Z,75.5611
2023-05-19T09:41:58.065Z,74.6332
2023-05-19T09:42:59.133Z,75.6000
2023-05-19T09:44:00.189Z,73.9700
2023-05-19T09:45:01.270Z,74.3650
2023-05-19T09:46:02.288Z,74.4496
2023-05-19T09:47:03.246Z,73.9707
2023-05-19T09:48:04.171Z,73.9331
2023-05-19T09:49:04.186Z,74.1556
2023-05-19T09:50:05.089Z,74.1892
2023-05-19T09:51:06.206Z,73.5349
2023-05-19T09:52:07.214Z,74.0921
2023-05-19T09:53:08.191Z,72.1005
2023-05-19T09:54:08.298Z,72.3276
2023-05-19T09:55:09.342Z,73.9103
2023-05-19T09:56:09.365Z,72.7037
2023-05-19T09:57:10.384Z,72.7665
2023-05-19T10:20:28.893Z,71.3342
2023-05-19T10:21:30.063Z,72.2671
2023-05-19T10:22:31.270Z,72.3873
2023-05-19T10:23:32.049Z,72.2447
2023-05-19T10:24:33.162Z,72.5574
2023-05-19T10:25:34.425Z,72.6611
2023-05-19T10:26:34.331Z,73.1827
2023-05-19T10:27:35.271Z,72.9859
2023-05-19T10:28:36.190Z,72.7427
2023-05-19T10:29:37.098Z,72.0611
2023-05-19T10:30:38.150Z,70.8905
2023-05-19T10:31:39.319Z,72.1126
2023-05-19T10:32:39.397Z,71.7167
2023-05-19T10:33:40.432Z,71.5778
2023-05-19T10:34:41.277Z,71.6564
2023-05-19T10:35:42.199Z,71.1211
2023-05-19T10:36:42.266Z,71.4518
2023-05-19T10:37:43.449Z,69.7920
2023-05-19T10:38:44.527Z,71.3135
2023-05-19T10:39:45.094Z,72.3675
2023-05-19T10:40:46.093Z,72.0998
2023-05-19T10:41:47.063Z,72.1241
2023-05-19T10:42:46.928Z,72.5534
2023-05-19T10:43:48.182Z,72.3164
2023-05-19T10:44:48.733Z,71.9247
2023-05-19T10:45:48.944Z,72.1683
2023-05-19T10:46:49.474Z,73.0102
2023-05-19T11:03:04.226Z,67.7147
2023-05-19T11:04:05.989Z,69.0887
2023-05-19T11:05:06.457Z,69.9110
2023-05-19T11:06:07.481Z,67.9472
2023-05-19T11:07:08.644Z,71.2608
2023-05-19T11:08:09.668Z,70.0612
2023-05-19T11:09:10.695Z,71.4294
2023-05-19T11:10:10.895Z,72.7607
2023-05-19T11:11:11.829Z,70.4979
2023-05-19T11:12:12.754Z,71.2199
2023-05-19T11:13:14.909Z,70.6769
2023-05-19T11:14:14.737Z,71.4126
2023-05-19T11:15:15.718Z,71.8123
2023-05-19T11:16:16.889Z,70.9475
2023-05-19T11:17:18.078Z,69.5683
2023-05-19T11:18:18.785Z,69.6920
2023-05-19T11:19:20.002Z,70.5460
2023-05-19T11:20:20.109Z,70.3040
2023-05-19T11:21:21.227Z,68.9700
2023-05-19T11:22:22.152Z,67.9711
2023-05-19T11:23:23.442Z,68.7010
2023-05-19T11:24:23.448Z,68.0995
2023-05-19T11:25:24.435Z,68.4817
2023-05-19T11:26:25.271Z,68.5011
2023-05-19T11:27:26.153Z,69.8785
2023-05-19T11:28:26.992Z,69.4448
2023-05-19T11:29:27.858Z,71.6826
2023-05-19T11:30:28.849Z,71.3859
2023-05-19T11:31:29.777Z,71.2989
2023-05-19T11:32:30.955Z,71.4133
2023-05-19T11:33:30.813Z,71.6480
2023-05-19T11:34:31.673Z,71.4249
2023-05-19T11:35:35.444Z,70.5843
2023-05-19T11:36:32.809Z,69.9372
2023-05-19T11:37:33.576Z,69.8729
2023-05-19T11:38:34.388Z,68.9545
2023-05-19T11:39:35.401Z,68.0944
2023-05-19T11:40:36.222Z,67.5817
2023-05-19T11:41:37.267Z,67.9330
2023-05-19T11:42:38.268Z,66.3113
2023-05-19T11:43:39.275Z,64.4510
2023-05-19T11:44:40.482Z,63.0737
2023-05-19T11:45:41.188Z,63.8783
2023-05-19T11:46:42.352Z,65.3526
2023-05-19T11:48:00.895Z,65.2351
2023-05-19T11:48:44.021Z,65.0091
2023-05-19T11:49:44.862Z,65.3582
2023-05-19T11:50:45.896Z,65.9756
2023-05-19T11:51:47.015Z,66.1283
2023-05-19T11:52:48.180Z,66.4954
2023-05-19T11:53:48.381Z,65.0764
2023-05-19T11:54:49.442Z,65.0274
2023-05-19T11:55:50.932Z,63.5604
2023-05-19T11:56:50.775Z,64.5479
2023-05-19T11:58:02.903Z,62.9957
2023-05-19T11:58:52.374Z,62.9757
2023-05-19T11:59:53.392Z,63.2813
2023-05-19T12:00:54.448Z,62.5524
2023-05-19T12:01:54.612Z,62.5539
2023-05-19T12:02:54.707Z,62.6226
2023-05-19T12:03:54.796Z,62.6188
2023-05-19T12:04:55.831Z,63.4983
2023-05-19T12:05:56.618Z,59.6523
2023-05-19T12:06:56.459Z,60.8981
2023-05-19T12:07:57.674Z,62.4632
2023-05-19T12:08:58.609Z,61.2133
2023-05-19T12:09:59.670Z,61.4013
2023-05-19T12:11:00.531Z,63.7665
2023-05-19T12:12:01.493Z,64.6117
2023-05-19T12:13:02.441Z,64.1673
2023-05-19T12:14:03.411Z,63.0377
2023-05-19T12:15:04.334Z,63.5238
2023-05-19T12:16:05.402Z,65.1320
2023-05-19T12:17:06.533Z,64.3821
2023-05-19T12:18:07.748Z,65.0136
2023-05-19T12:19:08.678Z,64.6443
2023-05-19T12:20:09.916Z,63.9497
2023-05-19T12:21:09.877Z,64.3499
2023-05-19T12:22:10.058Z,64.9047
2023-05-19T12:23:10.082Z,64.4646
2023-05-19T12:24:10.878Z,63.6695
2023-05-19T12:25:11.778Z,62.3914
2023-05-19T12:26:11.881Z,64.9308
2023-05-19T12:27:12.987Z,63.2949
2023-05-19T12:28:14.808Z,64.3854
2023-05-19T12:38:22.091Z,63.3596
2023-05-19T12:39:22.985Z,63.5717
2023-05-19T12:40:24.056Z,62.8904
2023-05-19T12:41:25.228Z,63.8709
2023-05-19T12:42:26.152Z,62.8278
2023-05-19T12:43:27.320Z,63.4614
2023-05-19T12:44:28.301Z,64.3402
2023-05-19T12:45:29.174Z,65.1724
2023-05-19T12:46:30.406Z,66.1031
2023-05-19T12:47:31.353Z,65.9078
2023-05-19T12:48:31.436Z,65.5676
2023-05-19T12:49:32.518Z,66.6417
2023-05-19T12:50:32.966Z,66.5367
2023-05-19T12:51:33.494Z,66.2563
2023-05-19T12:52:34.149Z,66.3777
2023-05-19T12:53:35.080Z,67.1686
2023-05-19T12:54:36.296Z,65.8017
2023-05-19T12:57:37.457Z,66.9261
2023-05-19T12:58:37.496Z,67.5113
2023-05-19T12:59:38.992Z,66.3191
2023-05-19T13:00:39.150Z,66.2805
2023-05-19T13:01:40.581Z,65.2771
2023-05-19T13:02:41.543Z,65.1495
2023-05-19T13:03:42.060Z,65.5696
2023-05-19T13:04:43.173Z,66.8694
2023-05-19T13:05:44.218Z,66.4325
2023-05-19T13:06:45.168Z,64.0182
2023-05-19T13:07:45.979Z,64.1024
2023-05-19T13:08:46.823Z,63.7410
2023-05-19T13:09:47.055Z,65.3001
2023-05-19T13:10:47.935Z,63.3849
2023-05-19T13:11:48.835Z,63.1085
2023-05-19T13:12:49.849Z,65.0888
2023-05-19T13:13:49.962Z,65.3010
2023-05-19T13:14:51.660Z,65.5865
2023-05-19T13:15:51.191Z,66.9024
2023-05-19T13:16:52.275Z,67.9491
2023-05-19T13:17:53.273Z,68.7411
2023-05-19T13:18:53.670Z,69.1545
2023-05-19T13:19:54.382Z,69.2652
2023-05-19T13:20:55.314Z,70.3674
2023-05-19T13:21:56.467Z,70.6860
2023-05-19T13:22:57.418Z,71.4299
2023-05-19T13:23:58.486Z,70.4023
2023-05-19T13:24:59.442Z,70.6408
2023-05-19T13:26:00.053Z,70.2114
2023-05-19T13:27:00.263Z,69.3444
2023-05-19T13:28:01.560Z,69.5301
2023-05-19T13:29:02.502Z,68.8995
2023-05-19T13:30:03.418Z,69.3417
2023-05-19T13:31:04.425Z,67.7333
2023-05-19T13:32:04.397Z,68.0703
2023-05-19T13:33:05.652Z,68.2220
2023-05-19T13:34:06.204Z,69.0932
2023-05-19T13:35:07.004Z,70.9231
2023-05-19T13:36:07.378Z,69.0828
2023-05-19T13:48:16.355Z,70.1374
2023-05-19T13:49:17.360Z,70.7165
2023-05-19T13:50:18.344Z,69.2231
2023-05-19T13:51:19.302Z,69.4835
2023-05-19T13:52:20.380Z,68.5643
2023-05-19T13:53:21.450Z,69.3204
2023-05-19T13:54:22.677Z,68.8335
2023-05-19T13:55:23.729Z,68.9606
2023-05-19T13:56:24.555Z,68.5245
2023-05-19T13:57:25.505Z,68.6366
2023-05-19T13:58:26.438Z,69.0296
2023-05-19T13:59:27.448Z,68.4627
2023-05-19T14:00:27.865Z,68.6959
2023-05-19T14:01:28.022Z,69.5125
2023-05-19T14:13:43.685Z,73.4196
2023-05-19T14:14:43.699Z,72.2059
2023-05-19T14:15:43.794Z,72.9914
2023-05-19T14:16:45.300Z,71.3912
2023-05-19T14:17:46.390Z,73.6611
2023-05-19T14:18:46.475Z,73.5096
2023-05-19T14:19:47.658Z,72.9178
2023-05-19T14:20:48.676Z,71.9374
2023-05-19T14:21:49.687Z,72.0085
2023-05-19T14:22:50.675Z,71.6488
2023-05-19T14:23:51.919Z,71.1817
2023-05-19T14:24:52.680Z,70.3254
2023-05-19T14:25:53.777Z,71.2204
2023-05-19T14:26:53.899Z,70.0202
2023-05-19T14:27:55.044Z,70.9455
2023-05-19T14:28:56.247Z,71.9230
2023-05-19T14:29:57.138Z,74.4988
2023-05-19T14:30:57.272Z,72.7908
2023-05-19T14:31:58.555Z,71.9707
2023-05-19T14:32:59.589Z,72.4505
2023-05-19T14:34:00.786Z,71.8393
2023-05-19T14:35:01.727Z,70.3419
2023-05-19T14:36:02.783Z,70.2287
2023-05-19T14:37:03.840Z,70.6762
2023-05-19T14:38:04.998Z,71.2042
2023-05-19T14:39:05.771Z,71.2939
2023-05-19T14:40:08.813Z,71.0200
2023-05-19T14:45:10.230Z,71.1303
2023-05-19T15:16:34.241Z,70.2045
2023-05-19T15:17:35.498Z,71.5821
2023-05-19T15:18:36.662Z,71.8619
2023-05-19T15:19:36.894Z,69.9676
2023-05-19T15:20:40.278Z,70.0214
2023-05-19T15:21:40.550Z,71.5588
2023-05-19T15:23:41.261Z,72.3511
2023-05-19T15:28:03.122Z,73.1455
2023-05-19T15:29:04.370Z,72.2072
2023-05-19T15:30:05.139Z,73.3334
2023-05-19T15:32:06.197Z,74.1363
2023-05-19T15:34:07.636Z,73.5769
2023-05-19T15:35:07.938Z,73.8577
2023-05-19T15:36:08.221Z,73.2484
2023-05-19T15:37:09.674Z,73.2643
2023-05-19T15:38:09.366Z,72.3174
2023-05-19T15:39:10.697Z,73.0833
2023-05-19T15:40:11.974Z,73.2739
2023-05-19T15:46:15.456Z,73.2846
2023-05-19T15:47:15.968Z,73.3009
2023-05-19T15:48:17.960Z,72.6504
2023-05-19T15:49:18.248Z,72.7127
2023-05-19T15:52:21.286Z,73.4581
2023-05-19T15:53:22.558Z,74.2975
2023-05-19T15:54:23.332Z,74.1209
2023-05-19T15:55:24.150Z,73.3462
2023-05-19T15:56:24.263Z,73.5245
2023-05-19T15:57:25.356Z,73.6818
2023-05-19T15:58:26.185Z,73.3094
2023-05-19T15:59:27.389Z,72.9236
2023-05-19T16:01:28.122Z,73.5954
2023-05-19T16:03:27.714Z,73.3023
2023-05-19T16:04:28.788Z,72.2987
2023-05-19T16:05:29.093Z,72.7818
2023-05-19T16:06:30.079Z,74.0030
2023-05-19T16:07:30.475Z,72.5144
2023-05-19T16:08:31.009Z,74.1230
2023-05-19T16:09:32.227Z,73.1567
2023-05-19T16:10:32.898Z,72.7271
2023-05-19T16:12:33.824Z,73.2049
2023-05-19T16:13:35.112Z,72.3588
2023-05-19T16:15:35.602Z,71.5976
2023-05-19T16:16:37.052Z,71.2761
2023-05-19T16:17:36.848Z,70.8690
2023-05-19T16:18:38.378Z,70.7764
2023-05-19T16:19:38.385Z,70.9317
2023-05-19T16:21:39.128Z,70.7369
2023-05-19T16:32:44.369Z,70.2327
2023-05-19T16:33:44.597Z,70.6915
2023-05-19T16:34:45.581Z,72.0674
2023-05-19T16:36:46.830Z,71.5388
2023-05-19T16:38:47.891Z,73.7814
2023-05-19T16:39:48.370Z,71.6354
2023-05-19T16:45:52.597Z,71.4442
2023-05-19T16:46:53.309Z,71.7212
2023-05-19T16:47:54.677Z,72.4276
2023-05-19T16:48:55.825Z,73.3334
2023-05-19T16:49:56.017Z,72.2904
2023-05-19T16:51:57.154Z,71.9039
2023-05-19T16:52:57.500Z,72.1082
2023-05-19T16:53:57.664Z,73.6480
2023-05-19T16:56:00.451Z,73.1766
2023-05-19T16:57:01.493Z,74.1183
2023-05-19T16:59:02.118Z,73.0862
2023-05-19T17:00:03.302Z,74.3138
2023-05-19T17:01:03.774Z,73.5273
2023-05-19T17:02:05.117Z,73.8012
2023-05-19T17:03:05.368Z,73.6335
2023-05-19T17:04:05.577Z,72.6863
2023-05-19T17:05:07.186Z,73.5661
2023-05-19T17:06:07.431Z,73.2896
2023-05-19T17:08:08.374Z,73.2581
2023-05-19T17:09:09.267Z,73.2212
2023-05-19T17:10:10.599Z,72.4837
2023-05-19T17:11:11.458Z,72.9907
2023-05-19T17:12:11.808Z,73.1435
2023-05-19T17:13:12.995Z,72.8795
2023-05-19T17:14:14.205Z,73.4723
2023-05-19T17:15:15.035Z,73.5368
2023-05-19T17:16:15.913Z,73.5346
2023-05-19T17:17:16.045Z,73.5412
2023-05-19T17:18:16.880Z,73.3663
2023-05-19T17:19:17.836Z,73.4470
2023-05-19T17:20:18.382Z,73.6621
2023-05-19T17:21:19.589Z,73.8281
2023-05-19T17:22:20.178Z,75.1112
2023-05-19T17:23:20.867Z,74.4241
2023-05-19T17:24:21.775Z,73.4561
2023-05-19T17:25:22.146Z,74.0650
2023-05-19T17:26:23.153Z,73.9440
2023-05-19T17:27:24.039Z,73.9847
2023-05-19T17:32:26.185Z,73.9964
2023-05-19T17:34:27.470Z,74.5082
2023-05-19T17:35:28.657Z,76.4876
2023-05-19T17:36:29.042Z,77.4293
2023-05-19T17:37:30.524Z,75.0995
2023-05-19T17:40:32.008Z,74.2452
2023-05-19T17:42:32.547Z,74.9322
2023-05-19T17:43:32.809Z,75.1052
2023-05-19T17:45:36.439Z,75.8038
2023-05-19T17:54:41.864Z,75.9026
2023-05-19T17:55:42.398Z,75.4857
2023-05-19T17:56:43.939Z,74.9021
2023-05-19T17:57:45.662Z,75.5938
2023-05-19T17:58:45.975Z,75.7721
2023-05-19T17:59:46.099Z,76.5632
2023-05-19T18:00:47.752Z,75.8375
2023-05-19T18:01:47.913Z,76.6572
2023-05-19T18:02:48.404Z,74.8037
2023-05-19T18:03:50.013Z,75.4168
2023-05-19T18:08:52.853Z,74.3329
2023-05-19T18:09:53.215Z,74.0217
2023-05-19T18:11:56.193Z,74.6962
2023-05-19T18:12:57.428Z,75.6553
2023-05-19T18:14:59.101Z,75.2753
2023-05-19T18:16:00.268Z,74.3175
2023-05-19T18:17:00.519Z,74.6336
2023-05-19T18:18:01.099Z,74.2611
2023-05-19T18:19:01.952Z,73.7723
2023-05-19T18:30:09.731Z,75.0359
2023-05-19T18:31:10.669Z,76.2471
2023-05-19T18:32:11.097Z,75.9093
2023-05-19T18:33:12.109Z,76.0020
2023-05-19T18:34:11.496Z,75.4724
2023-05-19T18:35:12.644Z,75.7637
2023-05-19T18:36:13.963Z,75.3903
2023-05-19T18:37:14.920Z,74.8735
2023-05-19T18:38:15.103Z,76.2348
2023-05-19T18:39:16.115Z,76.1183
2023-05-19T18:40:16.550Z,76.2084
2023-05-19T18:41:16.820Z,75.4959
2023-05-19T18:43:20.345Z,75.7113
2023-05-19T18:44:21.438Z,75.4763
2023-05-19T18:53:28.614Z,77.1639
2023-05-19T18:54:29.595Z,76.6824
2023-05-19T18:56:30.283Z,77.0636
2023-05-19T18:57:30.793Z,76.9426
2023-05-19T18:59:33.852Z,76.9105
2023-05-19T19:00:35.269Z,76.6318
2023-05-19T19:01:35.292Z,77.5245
2023-05-19T19:02:36.335Z,78.3315
2023-05-19T19:03:37.781Z,78.8814
2023-05-19T19:04:38.247Z,76.7782
2023-05-19T19:05:39.609Z,77.3419
2023-05-19T19:06:42.014Z,77.1814
2023-05-19T19:15:47.580Z,78.3788
2023-05-19T19:16:48.699Z,78.7498
2023-05-19T19:17:49.625Z,77.6074
2023-05-19T19:18:50.687Z,79.1557
2023-05-19T19:19:51.281Z,77.7945
2023-05-19T19:20:51.487Z,78.1385
2023-05-19T19:21:52.365Z,77.6208
2023-05-19T19:22:52.750Z,77.8149
2023-05-19T19:23:53.946Z,77.9671
2023-05-19T19:24:55.121Z,78.0199
2023-05-19T19:25:55.653Z,77.5439
2023-05-19T19:26:57.080Z,77.9753
2023-05-19T19:27:57.322Z,77.4609
2023-05-19T19:28:57.414Z,78.4124
2023-05-19T19:29:58.302Z,78.4293
2023-05-19T19:36:03.797Z,78.4627
2023-05-19T19:37:05.272Z,78.4248
2023-05-19T19:39:06.154Z,78.3959
2023-05-19T19:40:06.243Z,79.4380
2023-05-19T19:41:07.240Z,78.2262
2023-05-19T19:42:08.415Z,78.0380
2023-05-19T19:43:09.064Z,78.2501
2023-05-19T19:44:10.290Z,78.2497
2023-05-19T19:45:12.496Z,78.6806
2023-05-19T19:46:12.271Z,78.6924
2023-05-19T19:47:12.783Z,79.7275
2023-05-19T19:48:13.091Z,79.6796
2023-05-19T19:49:13.959Z,79.0441
2023-05-19T19:50:15.061Z,80.0327
2023-05-19T19:51:16.294Z,81.6812
2023-05-19T19:52:17.636Z,81.6370
2023-05-19T19:58:21.215Z,79.6743
2023-05-19T19:59:21.571Z,79.4298
2023-05-19T20:00:22.403Z,78.5731
2023-05-19T20:01:22.869Z,79.7509